Time;durP1;ratioP1;P1;durP2;ratioP2;P2;SDS_P1;SDS_P2;PMS_P1;PMS_P2;Temp;Humidity;BMP_temperature;BMP_pressure;BME280_temperature;BME280_humidity;BME280_pressure;Samples;Min_cycle;Max_cycle;Signal;HPM_P1;HPM_P2
2023/08/03 00:01:46;;;;;;;;;;;;;;;27.04;35.98;98707.06;6155529;23;19920;-67
2023/08/03 00:04:12;;;;;;;;;;;;;;;27.08;35.78;98701.69;6155380;23;20259;-67
2023/08/03 00:06:37;;;;;;;;;;;;;;;27.06;35.85;98697.63;6129134;23;19912;-67
2023/08/03 00:09:02;;;;;;;;;;;;;;;27.00;36.19;98692.38;6155264;23;19908;-67
2023/08/03 00:11:28;;;;;;;;;;;;;;;27.03;35.96;98697.19;6154885;23;19908;-67
2023/08/03 00:13:53;;;;;;;;;;;;;;;27.04;35.96;98700.75;6155068;23;20012;-67
2023/08/03 00:16:18;;;;;;;;;;;;;;;27.04;36.43;98703.50;6155044;23;19909;-67
2023/08/03 00:18:43;;;;;;;;;;;;;;;27.02;36.12;98703.88;6155365;23;20451;-67
2023/08/03 00:21:09;;;;;;;;;;;;;;;27.01;36.11;98698.69;6155071;23;20374;-67
2023/08/03 00:23:34;;;;;;;;;;;;;;;26.98;36.14;98700.19;6155399;23;19916;-67
2023/08/03 00:25:59;;;;;;;;;;;;;;;26.95;36.36;98700.88;6155410;23;20188;-67
2023/08/03 00:28:25;;;;;;;;;;;;;;;26.94;36.41;98706.75;6155392;23;19932;-67
2023/08/03 00:30:50;;;;;;;;;;;;;;;26.94;36.63;98720.50;6155050;23;19909;-67
2023/08/03 00:33:15;;;;;;;;;;;;;;;26.95;36.64;98705.56;6154957;23;19908;-67
2023/08/03 00:35:41;;;;;;;;;;;;;;;26.95;36.63;98708.31;6155409;23;20012;-67
2023/08/03 00:38:06;;;;;;;;;;;;;;;26.96;36.34;98707.19;6154945;23;19908;-67
2023/08/03 00:40:32;;;;;;;;;;;;;;;26.98;36.22;98704.88;6155023;23;19908;-67
2023/08/03 00:42:57;;;;;;;;;;;;;;;26.97;36.57;98709.59;6129174;23;19908;-67
2023/08/03 00:45:23;;;;;;;;;;;;;;;26.97;36.43;98712.34;6154842;23;20270;-67
2023/08/03 00:47:48;;;;;;;;;;;;;;;26.98;36.56;98713.16;6154605;23;19909;-67
2023/08/03 00:50:13;;;;;;;;;;;;;;;26.97;36.41;98714.31;6155248;23;20278;-67
2023/08/03 00:52:39;;;;;;;;;;;;;;;26.95;36.48;98722.09;6155418;23;19913;-66
2023/08/03 00:55:04;;;;;;;;;;;;;;;26.94;36.57;98726.81;6129582;23;20222;-66
2023/08/03 00:57:30;;;;;;;;;;;;;;;26.91;36.78;98737.72;6155215;23;19908;-66
2023/08/03 00:59:55;;;;;;;;;;;;;;;26.92;36.71;98740.13;6157286;23;19909;-67
2023/08/03 01:02:21;;;;;;;;;;;;;;;26.90;36.94;98742.44;6157032;23;19920;-67
2023/08/03 01:04:46;;;;;;;;;;;;;;;26.89;36.82;98740.03;6157461;23;19915;-67
2023/08/03 01:07:11;;;;;;;;;;;;;;;26.85;37.22;98737.94;6157082;23;19908;-67
2023/08/03 01:09:36;;;;;;;;;;;;;;;26.87;36.71;98742.31;6157230;23;19988;-67
2023/08/03 01:12:02;;;;;;;;;;;;;;;26.85;36.95;98748.97;6157035;23;19913;-67
2023/08/03 01:14:27;;;;;;;;;;;;;;;26.87;36.87;98745.06;6156517;23;19908;-66
2023/08/03 01:16:53;;;;;;;;;;;;;;;26.87;36.77;98748.63;6156587;23;19939;-67
2023/08/03 01:19:18;;;;;;;;;;;;;;;26.84;36.58;98744.63;6156686;23;19908;-67
2023/08/03 01:21:45;;;;;;;;;;;;;;;26.83;36.77;98742.22;6157141;23;19909;-67
2023/08/03 01:24:10;;;;;;;;;;;;;;;26.76;36.83;98739.22;6157105;23;19908;-66
2023/08/03 01:26:36;;;;;;;;;;;;;;;26.75;36.93;98748.66;6130850;23;19913;-67
2023/08/03 01:29:01;;;;;;;;;;;;;;;26.72;37.01;98750.13;6157131;23;19949;-67
2023/08/03 01:31:26;;;;;;;;;;;;;;;26.72;36.82;98749.31;6130740;23;20281;-67
2023/08/03 01:33:52;;;;;;;;;;;;;;;26.70;36.79;98752.41;6156783;23;19920;-67
2023/08/03 01:36:17;;;;;;;;;;;;;;;26.74;36.97;98753.31;6156885;23;19916;-67
2023/08/03 01:38:43;;;;;;;;;;;;;;;26.77;36.72;98754.59;6157134;23;19932;-67
2023/08/03 01:41:08;;;;;;;;;;;;;;;26.79;36.96;98755.06;6156860;23;19991;-67
2023/08/03 01:43:33;;;;;;;;;;;;;;;26.72;37.14;98752.06;6156848;23;19909;-67
2023/08/03 01:45:59;;;;;;;;;;;;;;;26.77;36.80;98758.16;6156653;23;20391;-67
2023/08/03 01:48:24;;;;;;;;;;;;;;;26.78;37.18;98756.19;6156145;23;19912;-67
2023/08/03 01:50:49;;;;;;;;;;;;;;;26.76;37.11;98753.00;6156909;23;20319;-67
2023/08/03 01:53:16;;;;;;;;;;;;;;;26.79;36.91;98749.56;6156386;23;19909;-67
2023/08/03 01:55:42;;;;;;;;;;;;;;;26.78;37.20;98747.94;6156218;23;19912;-67
2023/08/03 01:58:07;;;;;;;;;;;;;;;26.79;37.08;98757.81;6130477;23;19932;-67
2023/08/03 02:00:33;;;;;;;;;;;;;;;26.83;37.07;98754.03;6156733;23;19914;-67
2023/08/03 02:02:58;;;;;;;;;;;;;;;26.85;37.21;98759.19;6156302;23;19923;-67
2023/08/03 02:05:23;;;;;;;;;;;;;;;26.84;37.48;98746.59;6156777;23;19960;-67
2023/08/03 02:07:55;;;;;;;;;;;;;;;26.81;37.16;98747.25;6130096;23;19909;-67
2023/08/03 02:10:24;;;;;;;;;;;;;;;26.81;37.36;98747.25;6156177;23;19982;-67
2023/08/03 02:12:50;;;;;;;;;;;;;;;26.83;37.06;98742.22;6156609;23;19909;-66
2023/08/03 02:15:15;;;;;;;;;;;;;;;26.84;37.06;98750.13;6156333;23;20270;-67
2023/08/03 02:17:41;;;;;;;;;;;;;;;26.87;37.03;98750.59;6156403;23;20277;-67
2023/08/03 02:20:07;;;;;;;;;;;;;;;26.78;37.04;98756.19;6156529;23;19915;-67
2023/08/03 02:22:32;;;;;;;;;;;;;;;26.79;37.01;98753.09;6156044;23;19983;-67
2023/08/03 02:24:58;;;;;;;;;;;;;;;26.73;36.94;98748.97;6156003;23;19916;-67
2023/08/03 02:27:23;;;;;;;;;;;;;;;26.68;37.41;98754.72;6156228;23;19908;-67
2023/08/03 02:29:48;;;;;;;;;;;;;;;26.63;37.75;98752.19;6156094;23;19915;-67
2023/08/03 02:32:13;;;;;;;;;;;;;;;26.63;37.27;98743.91;6156180;23;19944;-67
2023/08/03 02:34:39;;;;;;;;;;;;;;;26.59;37.70;98741.00;6155891;23;19912;-67
2023/08/03 02:37:04;;;;;;;;;;;;;;;26.57;37.49;98745.25;6155756;23;19955;-67
2023/08/03 02:39:29;;;;;;;;;;;;;;;26.56;37.29;98749.97;6155872;23;19908;-67
2023/08/03 02:41:55;;;;;;;;;;;;;;;26.51;37.48;98752.16;6155854;23;19958;-67
2023/08/03 02:44:21;;;;;;;;;;;;;;;26.53;37.79;98760.88;6156183;23;19931;-67
2023/08/03 02:46:46;;;;;;;;;;;;;;;26.54;37.51;98751.44;6155238;23;20307;-67
2023/08/03 02:49:12;;;;;;;;;;;;;;;26.52;37.63;98751.00;6156415;23;19909;-67
2023/08/03 02:51:37;;;;;;;;;;;;;;;26.52;37.51;98753.75;6156009;23;19909;-67
2023/08/03 02:54:02;;;;;;;;;;;;;;;26.55;37.52;98747.56;6156038;23;19909;-67
2023/08/03 02:56:28;;;;;;;;;;;;;;;26.50;37.54;98745.81;6156162;23;19908;-67
2023/08/03 02:58:54;;;;;;;;;;;;;;;26.49;37.51;98746.97;6155548;23;19932;-67
2023/08/03 03:01:19;;;;;;;;;;;;;;;26.48;37.62;98747.31;6129602;23;19963;-67
2023/08/03 03:03:45;;;;;;;;;;;;;;;26.48;37.67;98744.56;6155846;23;19920;-67
2023/08/03 03:06:10;;;;;;;;;;;;;;;26.51;37.62;98738.38;6155769;23;20114;-67
2023/08/03 03:08:35;;;;;;;;;;;;;;;26.49;37.60;98740.69;6155557;23;19951;-67
2023/08/03 03:11:01;;;;;;;;;;;;;;;26.48;37.86;98742.59;6155866;23;19912;-67
2023/08/03 03:13:26;;;;;;;;;;;;;;;26.47;37.88;98746.53;6155778;23;20346;-67
2023/08/03 03:15:51;;;;;;;;;;;;;;;26.46;38.00;98747.66;6156002;23;19924;-66
2023/08/03 03:18:17;;;;;;;;;;;;;;;26.47;38.23;98743.78;6130055;23;19909;-66
2023/08/03 03:20:42;;;;;;;;;;;;;;;26.51;38.07;98752.16;6105130;23;20266;-66
2023/08/03 03:23:07;;;;;;;;;;;;;;;26.52;38.00;98753.75;6155732;23;19995;-67
2023/08/03 03:25:33;;;;;;;;;;;;;;;26.54;37.94;98754.19;6129750;23;19943;-67
2023/08/03 03:28:04;;;;;;;;;;;;;;;26.55;37.90;98756.63;6129491;23;19915;-66
2023/08/03 03:30:30;;;;;;;;;;;;;;;26.56;38.31;98752.72;6155532;23;19909;-67
2023/08/03 03:32:55;;;;;;;;;;;;;;;26.59;38.08;98751.22;6155507;23;19963;-67
2023/08/03 03:35:20;;;;;;;;;;;;;;;26.62;38.32;98759.63;6155714;23;19909;-67
2023/08/03 03:37:45;;;;;;;;;;;;;;;26.70;37.98;98760.69;6155786;23;19908;-67
2023/08/03 03:40:11;;;;;;;;;;;;;;;26.74;38.00;98758.84;6155526;23;19960;-67
2023/08/03 03:42:36;;;;;;;;;;;;;;;26.74;38.05;98767.09;6155078;23;19995;-67
2023/08/03 03:45:01;;;;;;;;;;;;;;;26.80;37.84;98771.25;6129304;23;19968;-67
2023/08/03 03:47:27;;;;;;;;;;;;;;;26.80;38.19;98765.75;6154375;23;19909;-67
2023/08/03 03:49:52;;;;;;;;;;;;;;;26.84;37.83;98763.09;6155239;23;19940;-67
2023/08/03 03:52:17;;;;;;;;;;;;;;;26.58;37.56;98730.38;6155268;23;19947;-67
2023/08/03 03:54:43;;;;;;;;;;;;;;;26.90;37.55;98774.69;6155429;23;19947;-66
2023/08/03 03:57:08;;;;;;;;;;;;;;;26.93;37.68;98774.00;6155179;23;19908;-67
2023/08/03 03:59:33;;;;;;;;;;;;;;;26.94;37.76;98768.16;6155170;23;19908;-67
2023/08/03 04:01:58;;;;;;;;;;;;;;;26.92;37.95;98770.44;6155185;23;19917;-67
2023/08/03 04:04:24;;;;;;;;;;;;;;;26.94;37.91;98768.16;6155677;23;19909;-66
2023/08/03 04:06:49;;;;;;;;;;;;;;;26.96;37.88;98774.09;6155087;23;20259;-66
2023/08/03 04:09:14;;;;;;;;;;;;;;;26.97;37.72;98770.22;6155570;23;19915;-67
2023/08/03 04:11:39;;;;;;;;;;;;;;;26.98;37.72;98776.53;6155309;23;19938;-66
2023/08/03 04:14:05;;;;;;;;;;;;;;;27.01;38.00;98781.34;6155316;23;20339;-67
2023/08/03 04:16:30;;;;;;;;;;;;;;;27.03;37.69;98782.59;6155228;23;19955;-67
2023/08/03 04:18:55;;;;;;;;;;;;;;;27.07;37.64;98781.94;6155605;23;19909;-67
2023/08/03 04:21:20;;;;;;;;;;;;;;;27.08;37.51;98786.28;6155501;23;20270;-67
2023/08/03 04:23:46;;;;;;;;;;;;;;;27.10;37.77;98781.22;6155652;23;19996;-67
2023/08/03 04:26:11;;;;;;;;;;;;;;;27.12;37.55;98781.69;6155357;23;20315;-67
2023/08/03 04:28:36;;;;;;;;;;;;;;;27.11;37.53;98778.13;6155511;23;19915;-67
2023/08/03 04:31:02;;;;;;;;;;;;;;;27.11;37.42;98785.59;6155578;23;19916;-67
2023/08/03 04:33:27;;;;;;;;;;;;;;;27.13;37.87;98784.09;6154964;23;20302;-67
2023/08/03 04:35:53;;;;;;;;;;;;;;;27.11;37.59;98780.88;6155198;23;19916;-67
2023/08/03 04:38:18;;;;;;;;;;;;;;;27.13;37.56;98783.28;6155214;23;19915;-67
2023/08/03 04:40:43;;;;;;;;;;;;;;;27.10;37.84;98782.03;6155641;23;19908;-66
2023/08/03 04:43:09;;;;;;;;;;;;;;;27.13;37.72;98783.28;6155006;23;20339;-67
2023/08/03 04:45:35;;;;;;;;;;;;;;;27.16;37.60;98783.41;6155003;23;19916;-67
2023/08/03 04:48:00;;;;;;;;;;;;;;;27.19;37.87;98779.13;6154606;23;19916;-67
2023/08/03 04:50:25;;;;;;;;;;;;;;;27.21;37.49;98782.38;6154880;23;20250;-67
2023/08/03 04:52:50;;;;;;;;;;;;;;;27.23;37.87;98782.84;6154568;23;19919;-67
2023/08/03 04:55:16;;;;;;;;;;;;;;;27.27;37.66;98782.97;6154676;23;19909;-67
2023/08/03 04:57:41;;;;;;;;;;;;;;;27.27;37.63;98785.72;6154832;23;19967;-66
2023/08/03 05:00:07;;;;;;;;;;;;;;;27.31;37.60;98792.94;6155048;23;19908;-67
2023/08/03 05:02:32;;;;;;;;;;;;;;;27.35;37.71;98795.81;6128488;23;19940;-66
2023/08/03 05:04:57;;;;;;;;;;;;;;;27.41;37.95;98792.50;6128768;23;20299;-67
2023/08/03 05:07:23;;;;;;;;;;;;;;;27.48;37.90;98789.13;6155110;23;19908;-67
2023/08/03 05:09:48;;;;;;;;;;;;;;;27.49;37.80;98793.50;6155211;23;19915;-67
2023/08/03 05:12:14;;;;;;;;;;;;;;;27.58;37.61;98799.69;6155083;23;19921;-67
2023/08/03 05:14:39;;;;;;;;;;;;;;;27.62;37.41;98791.53;6155089;23;19908;-67
2023/08/03 05:17:04;;;;;;;;;;;;;;;27.66;37.56;98788.88;6155394;23;19909;-67
2023/08/03 05:19:30;;;;;;;;;;;;;;;27.68;37.48;98792.09;6155339;23;20358;-67
2023/08/03 05:21:57;;;;;;;;;;;;;;;27.73;37.37;98786.28;6154909;23;19932;-67
2023/08/03 05:24:22;;;;;;;;;;;;;;;27.76;37.34;98791.13;6154990;23;19909;-67
2023/08/03 05:26:48;;;;;;;;;;;;;;;27.75;37.56;98795.06;6128148;23;19913;-67
2023/08/03 05:29:13;;;;;;;;;;;;;;;27.77;37.77;98792.75;6154431;23;19944;-67
2023/08/03 05:31:38;;;;;;;;;;;;;;;27.79;37.60;98795.94;6154627;23;19915;-67
2023/08/03 05:34:04;;;;;;;;;;;;;;;27.81;37.40;98799.97;6154244;23;20363;-67
2023/08/03 05:36:29;;;;;;;;;;;;;;;27.85;37.61;98802.81;6154599;23;19959;-66
2023/08/03 05:38:54;;;;;;;;;;;;;;;27.89;37.71;98803.75;6154788;23;20354;-67
2023/08/03 05:41:25;;;;;;;;;;;;;;;27.91;37.89;98806.97;6129180;23;19912;-67
2023/08/03 05:43:50;;;;;;;;;;;;;;;27.94;37.60;98809.03;6154989;23;19911;-67
2023/08/03 05:46:17;;;;;;;;;;;;;;;27.96;37.61;98806.72;6156150;23;19919;-67
2023/08/03 05:48:42;;;;;;;;;;;;;;;27.97;37.36;98815.78;6155966;23;20223;-67
2023/08/03 05:51:09;;;;;;;;;;;;;;;27.99;37.04;98814.31;6156732;23;19961;-66
2023/08/03 05:53:34;;;;;;;;;;;;;;;28.01;36.90;98811.19;6156801;23;19908;-66
2023/08/03 05:56:00;;;;;;;;;;;;;;;27.99;36.76;98819.03;6156601;23;20255;-66
2023/08/03 05:58:25;;;;;;;;;;;;;;;28.02;37.16;98817.50;6156205;23;19944;-67
2023/08/03 06:00:50;;;;;;;;;;;;;;;28.05;36.91;98819.56;6156296;23;19980;-67
2023/08/03 06:03:17;;;;;;;;;;;;;;;28.06;36.98;98821.97;6156171;23;19924;-67
2023/08/03 06:05:47;;;;;;;;;;;;;;;28.10;36.91;98825.66;6156239;23;20299;-67
2023/08/03 06:08:14;;;;;;;;;;;;;;;28.14;36.93;98826.56;6156370;23;20333;-67
2023/08/03 06:10:39;;;;;;;;;;;;;;;28.19;37.02;98831.00;6156073;23;19940;-67
2023/08/03 06:13:05;;;;;;;;;;;;;;;28.24;37.05;98829.97;6156402;23;20245;-67
2023/08/03 06:15:30;;;;;;;;;;;;;;;28.32;36.75;98829.78;6156373;23;19909;-67
2023/08/03 06:18:01;;;;;;;;;;;;;;;28.34;36.66;98821.97;6130477;23;19999;-67
2023/08/03 06:20:26;;;;;;;;;;;;;;;28.37;36.75;98826.78;6156344;23;19916;-67
2023/08/03 06:22:52;;;;;;;;;;;;;;;28.41;36.67;98828.84;6156751;23;19908;-67
2023/08/03 06:25:17;;;;;;;;;;;;;;;28.47;36.38;98827.41;6156510;23;19991;-67
2023/08/03 06:27:43;;;;;;;;;;;;;;;28.52;36.25;98829.94;6156673;23;19975;-67
2023/08/03 06:30:11;;;;;;;;;;;;;;;28.53;36.52;98828.81;6129880;23;20343;-67
2023/08/03 06:32:37;;;;;;;;;;;;;;;28.59;36.81;98821.84;6156236;23;20239;-67
2023/08/03 06:35:03;;;;;;;;;;;;;;;28.66;36.51;98829.50;6156129;23;19909;-67
2023/08/03 06:37:29;;;;;;;;;;;;;;;28.70;36.54;98824.91;6156277;23;19908;-67
2023/08/03 06:39:54;;;;;;;;;;;;;;;28.76;36.58;98840.06;6130182;23;19995;-67
2023/08/03 06:42:19;;;;;;;;;;;;;;;28.88;36.38;98836.38;6156180;23;19909;-67
2023/08/03 06:44:45;;;;;;;;;;;;;;;28.93;35.96;98839.69;6156125;23;19909;-67
2023/08/03 06:47:10;;;;;;;;;;;;;;;28.98;35.84;98846.13;6154988;23;19916;-68
2023/08/03 06:49:35;;;;;;;;;;;;;;;29.08;36.17;98840.03;6155970;23;20432;-65
2023/08/03 06:52:01;;;;;;;;;;;;;;;29.17;35.95;98843.47;6155991;23;19912;-65
2023/08/03 06:54:26;;;;;;;;;;;;;;;29.21;35.21;98833.28;6155669;23;19909;-67
2023/08/03 06:56:51;;;;;;;;;;;;;;;29.19;34.89;98838.38;6155409;23;19987;-66
2023/08/03 06:59:21;;;;;;;;;;;;;;;29.25;35.27;98836.13;6129431;23;19999;-66
2023/08/03 07:01:49;;;;;;;;;;;;;;;29.30;35.32;98844.16;6156845;23;20370;-64
2023/08/03 07:04:15;;;;;;;;;;;;;;;29.32;34.94;98848.16;6156790;23;19955;-65
2023/08/03 07:06:41;;;;;;;;;;;;;;;29.41;35.53;98842.44;6128344;23;19978;-65
2023/08/03 07:09:06;;;;;;;;;;;;;;;29.48;35.27;98848.16;6154538;23;19912;-65
2023/08/03 07:11:31;;;;;;;;;;;;;;;29.57;35.61;98841.59;6154595;23;19954;-65
2023/08/03 07:13:56;;;;;;;;;;;;;;;29.66;35.74;98839.44;6155074;23;19916;-65
2023/08/03 07:16:23;;;;;;;;;;;;;;;29.79;35.91;98843.72;6154756;23;20028;-66
2023/08/03 07:18:51;;;;;;;;;;;;;;;29.90;35.77;98842.00;6129947;23;19908;-66
2023/08/03 07:21:16;;;;;;;;;;;;;;;29.96;35.30;98841.69;6129068;23;19908;-66
2023/08/03 07:23:42;;;;;;;;;;;;;;;30.00;34.81;98848.91;6155102;23;19916;-66
2023/08/03 07:26:15;;;;;;;;;;;;;;;30.06;35.75;98841.91;6155681;23;19963;-65
2023/08/03 07:28:40;;;;;;;;;;;;;;;30.11;35.27;98840.81;6155774;23;19952;-65
2023/08/03 07:31:12;;;;;;;;;;;;;;;30.20;34.53;98838.63;6156466;23;20039;-65
2023/08/03 07:33:37;;;;;;;;;;;;;;;30.27;34.69;98838.78;6155889;23;20350;-65
2023/08/03 07:36:03;;;;;;;;;;;;;;;30.28;34.98;98836.81;6155762;23;19909;-65
2023/08/03 07:38:28;;;;;;;;;;;;;;;30.36;34.74;98841.31;6156176;23;20267;-65
2023/08/03 07:40:53;;;;;;;;;;;;;;;30.46;34.40;98835.19;6155930;23;19909;-65
2023/08/03 07:43:18;;;;;;;;;;;;;;;30.48;33.43;98832.06;6156013;23;20156;-65
2023/08/03 07:45:44;;;;;;;;;;;;;;;30.65;33.95;98831.59;6155370;23;20008;-65
2023/08/03 07:48:09;;;;;;;;;;;;;;;30.69;34.70;98820.56;6154460;23;19943;-65
2023/08/03 07:50:34;;;;;;;;;;;;;;;30.79;33.86;98824.69;6155132;23;19909;-65
2023/08/03 07:52:59;;;;;;;;;;;;;;;30.81;34.34;98828.69;6155210;23;19908;-65
2023/08/03 07:55:25;;;;;;;;;;;;;;;30.92;34.15;98828.09;6155320;23;19916;-65
2023/08/03 07:57:50;;;;;;;;;;;;;;;31.00;33.65;98832.56;6155722;23;19909;-65
2023/08/03 08:00:15;;;;;;;;;;;;;;;31.06;34.10;98831.09;6155312;23;19942;-65
2023/08/03 08:02:41;;;;;;;;;;;;;;;31.14;32.96;98823.69;6155247;23;19979;-65
2023/08/03 08:05:06;;;;;;;;;;;;;;;31.16;33.84;98827.69;6155598;23;19916;-65
2023/08/03 08:07:33;;;;;;;;;;;;;;;31.25;33.52;98835.75;6154391;23;20409;-65
2023/08/03 08:09:58;;;;;;;;;;;;;;;31.26;33.31;98835.38;6129073;23;19908;-65
2023/08/03 08:12:24;;;;;;;;;;;;;;;31.35;33.29;98842.63;6155210;23;19940;-65
2023/08/03 08:14:49;;;;;;;;;;;;;;;31.35;33.53;98837.91;6155277;23;19908;-65
2023/08/03 08:17:14;;;;;;;;;;;;;;;31.42;33.35;98835.22;6155310;23;19908;-65
2023/08/03 08:19:40;;;;;;;;;;;;;;;31.37;32.88;98831.97;6155184;23;20450;-65
2023/08/03 08:22:07;;;;;;;;;;;;;;;31.33;32.79;98842.22;6155200;23;19909;-65
2023/08/03 08:24:32;;;;;;;;;;;;;;;31.27;32.91;98839.75;6155126;23;19987;-66
2023/08/03 08:26:57;;;;;;;;;;;;;;;31.25;32.94;98831.00;6155311;23;19955;-66
2023/08/03 08:29:24;;;;;;;;;;;;;;;31.28;33.25;98837.78;6155462;23;19909;-66
2023/08/03 08:31:49;;;;;;;;;;;;;;;31.28;33.50;98837.78;6155371;23;20351;-65
2023/08/03 08:34:15;;;;;;;;;;;;;;;31.35;33.21;98837.91;6154955;23;19909;-65
2023/08/03 08:36:40;;;;;;;;;;;;;;;31.39;33.01;98837.94;6155030;23;19912;-65
2023/08/03 08:39:05;;;;;;;;;;;;;;;31.40;32.04;98843.13;6155166;23;19987;-65
2023/08/03 08:41:30;;;;;;;;;;;;;;;31.41;32.98;98847.50;6129032;23;20172;-65
2023/08/03 08:43:56;;;;;;;;;;;;;;;31.54;32.01;98847.31;6155085;23;19983;-65
2023/08/03 08:46:21;;;;;;;;;;;;;;;31.55;31.76;98843.38;6154189;23;20219;-65
2023/08/03 08:48:47;;;;;;;;;;;;;;;31.60;31.93;98843.84;6154719;23;19963;-65
2023/08/03 08:51:13;;;;;;;;;;;;;;;31.62;30.69;98840.69;6154624;23;19932;-65
2023/08/03 08:53:38;;;;;;;;;;;;;;;31.73;30.37;98835.28;6155010;23;19917;-65
2023/08/03 08:56:03;;;;;;;;;;;;;;;31.87;31.09;98837.44;6155111;23;20267;-65
2023/08/03 08:58:29;;;;;;;;;;;;;;;32.06;31.42;98834.56;6155148;23;19909;-65
2023/08/03 09:01:02;;;;;;;;;;;;;;;32.17;31.18;98838.25;6155390;23;19908;-65
2023/08/03 09:03:44;;;;;;;;;;;;;;;32.38;29.29;98826.56;6155008;23;19999;-65
2023/08/03 09:06:09;;;;;;;;;;;;;;;32.55;29.96;98827.94;6154994;23;19923;-65
2023/08/03 09:08:47;;;;;;;;;;;;;;;32.55;28.96;98830.72;6129021;23;19987;-65
2023/08/03 09:11:12;;;;;;;;;;;;;;;32.70;29.31;98822.53;6155036;23;19939;-65
2023/08/03 09:13:37;;;;;;;;;;;;;;;32.84;28.99;98821.84;6155103;23;20337;-65
2023/08/03 09:16:03;;;;;;;;;;;;;;;32.86;29.11;98825.88;6155388;23;19931;-65
2023/08/03 09:18:30;;;;;;;;;;;;;;;32.94;28.78;98827.50;6154852;23;20341;-65
2023/08/03 09:21:11;;;;;;;;;;;;;;;33.01;29.22;98824.00;6156407;23;19986;-65
2023/08/03 09:23:37;;;;;;;;;;;;;;;33.07;29.24;98825.22;6130628;23;19994;-66
2023/08/03 09:26:05;;;;;;;;;;;;;;;33.18;29.25;98828.94;6156836;23;19930;-66
2023/08/03 09:28:35;;;;;;;;;;;;;;;33.24;28.60;98828.56;6156953;23;20451;-65
2023/08/03 09:31:00;;;;;;;;;;;;;;;33.36;28.52;98823.50;6157144;23;20480;-65
2023/08/03 09:33:26;;;;;;;;;;;;;;;33.46;27.61;98827.53;6157088;23;19987;-65
2023/08/03 09:36:00;;;;;;;;;;;;;;;33.62;27.56;98826.41;6157144;23;19912;-65
2023/08/03 09:38:26;;;;;;;;;;;;;;;33.75;26.75;98820.16;6156755;23;20315;-66
2023/08/03 09:40:51;;;;;;;;;;;;;;;33.91;25.72;98822.59;6156891;23;19913;-65
2023/08/03 09:43:17;;;;;;;;;;;;;;;34.04;26.71;98825.84;6157041;23;19936;-65
2023/08/03 09:45:45;;;;;;;;;;;;;;;34.22;26.12;98825.16;6156732;23;20299;-65
2023/08/03 09:48:11;;;;;;;;;;;;;;;34.35;26.24;98826.38;6155905;23;19908;-65
2023/08/03 09:50:37;;;;;;;;;;;;;;;34.41;27.02;98822.00;6156841;23;20249;-65
2023/08/03 09:53:06;;;;;;;;;;;;;;;34.50;26.91;98818.81;6156918;23;19940;-65
2023/08/03 09:55:33;;;;;;;;;;;;;;;34.64;27.58;98823.63;6156895;23;20069;-65
2023/08/03 09:58:02;;;;;;;;;;;;;;;34.71;26.66;98818.06;6156584;23;20382;-65
2023/08/03 10:00:28;;;;;;;;;;;;;;;34.79;25.63;98824.44;6157254;23;20321;-64
2023/08/03 10:03:00;;;;;;;;;;;;;;;34.89;27.51;98818.88;6156483;23;19916;-64
2023/08/03 10:05:26;;;;;;;;;;;;;;;34.92;27.37;98813.69;6156973;23;19923;-65
2023/08/03 10:07:51;;;;;;;;;;;;;;;35.01;25.36;98823.28;6156618;23;19943;-65
2023/08/03 10:10:20;;;;;;;;;;;;;;;35.08;26.01;98819.69;6156402;23;19915;-65
2023/08/03 10:12:49;;;;;;;;;;;;;;;35.13;25.93;98824.84;6156761;23;19909;-65
2023/08/03 10:15:16;;;;;;;;;;;;;;;35.29;26.17;98818.91;6156640;23;20032;-65
2023/08/03 10:17:42;;;;;;;;;;;;;;;35.38;26.35;98821.25;6156667;23;20331;-65
2023/08/03 10:20:09;;;;;;;;;;;;;;;35.43;24.92;98824.44;6156685;23;19980;-65
2023/08/03 10:22:34;;;;;;;;;;;;;;;35.48;25.75;98824.03;6130236;23;19913;-65
2023/08/03 10:25:17;;;;;;;;;;;;;;;35.57;25.50;98817.22;6156772;23;20318;-65
2023/08/03 10:28:02;;;;;;;;;;;;;;;35.62;25.15;98812.00;6157035;23;19912;-65
2023/08/03 10:30:48;;;;;;;;;;;;;;;35.59;24.23;98817.63;6156330;23;19915;-65
2023/08/03 10:33:14;;;;;;;;;;;;;;;35.66;25.76;98820.38;6130319;23;19919;-65
2023/08/03 10:35:39;;;;;;;;;;;;;;;35.76;26.42;98816.00;6156440;23;19940;-66
2023/08/03 10:38:17;;;;;;;;;;;;;;;35.86;26.54;98815.94;6155886;23;20262;-65
2023/08/03 10:40:42;;;;;;;;;;;;;;;36.10;25.16;98812.66;6155739;23;20371;-65
2023/08/03 10:43:08;;;;;;;;;;;;;;;36.05;24.55;98803.50;6155820;23;19990;-66
2023/08/03 10:45:35;;;;;;;;;;;;;;;35.93;26.10;98809.53;6156411;23;19919;-66
2023/08/03 10:48:21;;;;;;;;;;;;;;;35.91;25.78;98814.75;6155558;23;19909;-66
2023/08/03 10:50:59;;;;;;;;;;;;;;;35.87;25.34;98808.38;6155996;23;19912;-66
2023/08/03 10:53:25;;;;;;;;;;;;;;;35.95;24.60;98809.13;6156567;23;20000;-66
2023/08/03 10:55:52;;;;;;;;;;;;;;;36.05;25.11;98811.06;6155927;23;19940;-66
2023/08/03 10:58:19;;;;;;;;;;;;;;;36.26;25.96;98813.00;6155991;23;19987;-66
2023/08/03 11:00:44;;;;;;;;;;;;;;;36.45;23.60;98803.28;6156113;23;19912;-66
2023/08/03 11:03:09;;;;;;;;;;;;;;;36.48;23.82;98796.91;6156122;23;19944;-66
2023/08/03 11:05:36;;;;;;;;;;;;;;;36.57;24.43;98793.63;6155921;23;19912;-66
2023/08/03 11:08:01;;;;;;;;;;;;;;;36.59;23.08;98794.81;6156123;23;20258;-66
2023/08/03 11:10:26;;;;;;;;;;;;;;;36.72;24.39;98802.72;6155858;23;19909;-66
2023/08/03 11:12:54;;;;;;;;;;;;;;;36.89;26.48;98793.41;6155988;23;20272;-66
2023/08/03 11:15:20;;;;;;;;;;;;;;;37.08;25.16;98794.81;6156255;23;19912;-66
2023/08/03 11:17:49;;;;;;;;;;;;;;;37.28;23.09;98788.66;6156040;23;20283;-66
2023/08/03 11:20:14;;;;;;;;;;;;;;;37.19;23.81;98794.75;6156377;23;19909;-66
2023/08/03 11:22:40;;;;;;;;;;;;;;;37.35;23.38;98783.78;6155812;23;19908;-66
2023/08/03 11:25:06;;;;;;;;;;;;;;;37.45;24.33;98786.88;6155788;23;19913;-66
2023/08/03 11:27:31;;;;;;;;;;;;;;;37.43;22.11;98792.91;6156088;23;19908;-66
2023/08/03 11:29:57;;;;;;;;;;;;;;;37.70;22.40;98793.00;6155903;23;19912;-66
2023/08/03 11:32:26;;;;;;;;;;;;;;;37.84;22.80;98794.06;6155861;23;19944;-66
2023/08/03 11:35:03;;;;;;;;;;;;;;;37.90;22.83;98795.16;6129610;23;20456;-66
2023/08/03 11:37:32;;;;;;;;;;;;;;;38.01;23.75;98787.41;6155865;23;20410;-66
2023/08/03 11:39:58;;;;;;;;;;;;;;;38.16;22.21;98788.03;6156190;23;19908;-66
2023/08/03 11:42:24;;;;;;;;;;;;;;;38.33;22.61;98789.78;6155103;23;19915;-66
2023/08/03 11:44:49;;;;;;;;;;;;;;;38.33;22.09;98784.16;6156011;23;19917;-66
2023/08/03 11:47:15;;;;;;;;;;;;;;;38.14;22.68;98788.47;6155011;23;19912;-66
2023/08/03 11:49:40;;;;;;;;;;;;;;;38.01;23.22;98793.03;6155749;23;19915;-66
2023/08/03 11:52:05;;;;;;;;;;;;;;;37.86;20.53;98780.41;6155814;23;19908;-66
2023/08/03 11:54:32;;;;;;;;;;;;;;;37.86;23.37;98786.81;6155624;23;19909;-66
2023/08/03 11:59:43;;;;;;;;;;;;;;;37.61;21.22;98775.88;6155557;23;19955;-65
2023/08/03 12:02:08;;;;;;;;;;;;;;;37.55;21.78;98781.13;6155596;23;19921;-66
2023/08/03 12:04:34;;;;;;;;;;;;;;;37.51;22.29;98780.38;6155537;23;19991;-65
2023/08/03 12:07:01;;;;;;;;;;;;;;;37.42;22.78;98784.91;6155696;23;19913;-65
2023/08/03 12:09:27;;;;;;;;;;;;;;;37.32;22.77;98793.00;6155709;23;20080;-65
2023/08/03 12:11:59;;;;;;;;;;;;;;;37.14;20.61;98786.78;6155358;23;19912;-65
2023/08/03 12:14:24;;;;;;;;;;;;;;;36.93;21.81;98782.97;6155500;23;19908;-66
2023/08/03 12:16:50;;;;;;;;;;;;;;;36.77;22.16;98785.50;6155685;23;19935;-66
2023/08/03 12:19:15;;;;;;;;;;;;;;;36.73;22.90;98781.94;6155566;23;19908;-65
2023/08/03 12:21:40;;;;;;;;;;;;;;;36.59;21.92;98775.22;6155257;23;19912;-66
2023/08/03 12:24:07;;;;;;;;;;;;;;;36.78;24.45;98776.69;6155428;23;20038;-65
2023/08/03 12:26:32;;;;;;;;;;;;;;;37.05;23.20;98778.84;6155439;23;19916;-66
2023/08/03 12:28:58;;;;;;;;;;;;;;;37.54;23.31;98771.16;6155540;23;20033;-66
2023/08/03 12:31:24;;;;;;;;;;;;;;;37.89;22.80;98768.34;6155257;23;19999;-66
2023/08/03 12:33:49;;;;;;;;;;;;;;;38.37;21.72;98775.69;6155336;23;20076;-66
2023/08/03 12:36:15;;;;;;;;;;;;;;;38.79;21.26;98770.66;6155090;23;19944;-66
2023/08/03 12:38:40;;;;;;;;;;;;;;;39.34;21.32;98768.50;6155231;23;19909;-66
2023/08/03 12:41:06;;;;;;;;;;;;;;;39.71;19.34;98763.75;6155456;23;19909;-66
2023/08/03 12:43:31;;;;;;;;;;;;;;;39.87;18.57;98768.63;6155891;23;19916;-66
2023/08/03 12:45:57;;;;;;;;;;;;;;;40.00;18.61;98768.78;6155540;23;19920;-66